Swift Current Airport
CYYN : now visible

Airfield :











YOU CAN JOIN US ON...

 
LOGIN :

Register | Disclaimer

   EN    FR    IT 

 









Legend :    VFR   Marginal VFR   IFR   Intensive IFR   Very Intensive IFR
Visi :
Ceiling :
>= 8 km
>= 3000ft
5 to 8 km
1000 to 3000 ft
1500m to 5 km
500 to 1000 ft
800 to 1500m
200 to 500 ft
< 800m
< 200 ft
Symbols :   Thunderstorms  Fog  Heavy snow  Heavy precipitations  Wind > 20 kt






- Airport Elevation : 2680 ft
- IATA code : YYN


CYYN - Swift Current

CURRENT METAR :
  • 260432Z AUTO 33012KT 7SM OVC003 M04/M04 A2983 RMK SLP138

EXPIRED METARs :
  • 260408Z AUTO 34014G19KT 6SM -SN OVC003 M04/M04 A2982 RMK SLP135
  • 260404Z AUTO 34014G19KT 4SM -SN OVC003 M03/M04 A2982 RMK SLP134
  • 260315Z AUTO 32019KT 3SM -SN BKN005 OVC024 M03/M04 A2980 RMK SLP127
  • 260300Z AUTO 32018KT 1 1/4SM -SN BKN005 OVC009 M03/M03 A2981 RMK SLP128
  • 260222Z AUTO 32020G25KT 1 1/2SM -SN BKN005 OVC011 M02/M03 A2979 RMK SLP121
  • 260215Z AUTO 32020KT 2SM -SN BKN003 OVC008 M02/M02 A2979 RMK SLP119
  • 260202Z AUTO 32022KT 3SM -SN OVC003 M01/M02 A2978 RMK SLP116
  • 260154Z AUTO 32019G25KT 2 1/4SM -SN OVC003 M01/M01 A2977 RMK SLP114
  • 260144Z AUTO 31018G24KT 1 1/4SM -SN OVC003 M01/M01 A2977 RMK SLP113

TAF AMD TAF CYYN
Valid from the 26 at 04:00 until the 26 at 12:00 UTC


260417Z 2604/2612 34015G25KT 2SM -SN OVC003
TEMPO 2604/2610 6SM -SN OVC006
FM261000 31012G22KT 1SM BR OVC003
TEMPO 2610/2612 5SM -SN BR OVC006
PROB40 2610/2612 1/2SM FZFG VV002 RMK FCST BASED ON AUTO OBS. NXT FCST BY 260600Z



MET'MAP, your aeronautical weather chart ! - Copyright ORBIFLY December 2007 - Disclaimer

ORBIFLY MET'MAP TEAM :

Programming & Development : Alexandra Zaïnal
Concept & original design : Baudouin d'Aumeries
Assistance for programming : Marc-Olivier Méhu
Technical & hardware support : Manuel Goepfert

Contact : metmap@orbifly.com




SOURCES & CREDITS :

   NOAA       Earth
Advisory